Kentucky Observed Data For Previous 48 Hours

Caption
Day and Hour Reservoir Elevation (behind dam)* Tailwater Elevation (below dam)* Average Hourly Discharge*
11/13/2019 1 AM CST 354.77 304.11 40,654
11/13/2019 2 AM CST 354.77 304.02 40,764
11/13/2019 3 AM CST 354.76 304.00 40,727
11/13/2019 4 AM CST 354.77 303.90 40,765
11/13/2019 5 AM CST 354.77 303.81 40,730
11/13/2019 6 AM CST 354.77 303.76 40,855
11/13/2019 7 AM CST 354.74 303.69 40,726
11/13/2019 8 AM CST 354.75 303.55 40,630
11/13/2019 9 AM CST 354.77 303.56 40,794
11/13/2019 10 AM CST 354.77 303.65 40,695
11/13/2019 11 AM CST 354.77 303.51 40,677
11/13/2019 12 PM CST 354.77 303.49 40,557
11/13/2019 1 PM CST 354.77 303.21 40,685
11/13/2019 2 PM CST 354.80 303.14 40,700
11/13/2019 3 PM CST 354.79 303.08 40,723
11/13/2019 4 PM CST 354.80 303.00 37,799
11/13/2019 5 PM CST 354.79 302.93 40,695
11/13/2019 6 PM CST 354.77 303.10 40,663
11/13/2019 7 PM CST 354.77 303.00 40,729
11/13/2019 8 PM CST 354.74 303.00 40,737
11/13/2019 9 PM CST 354.73 302.96 40,854
11/13/2019 10 PM CST 354.76 302.97 40,735
11/13/2019 11 PM CST 354.77 302.94 40,605
11/14/2019 12 AM CST 354.79 302.85 40,561
11/14/2019 1 AM CST 354.78 302.78 40,677
11/14/2019 2 AM CST 354.80 302.74 40,695
11/14/2019 3 AM CST 354.80 302.71 40,680
11/14/2019 4 AM CST 354.78 302.62 40,655
11/14/2019 5 AM CST 354.76 302.54 40,541
11/14/2019 6 AM CST 354.75 302.47 40,544
11/14/2019 7 AM CST 354.76 302.44 40,563
11/14/2019 8 AM CST 354.75 302.51 40,614
11/14/2019 9 AM CST 354.72 302.45 40,438
11/14/2019 10 AM CST 354.70 302.46 40,495
11/14/2019 11 AM CST 354.69 302.45 40,424
11/14/2019 12 PM CST 354.77 301.92 27,818
11/14/2019 1 PM CST 354.77 301.81 27,607
11/14/2019 2 PM CST 354.78 301.77 27,605
11/14/2019 3 PM CST 354.75 301.75 27,593
11/14/2019 4 PM CST 354.78 301.71 27,547
11/14/2019 5 PM CST 354.76 301.67 27,467
11/14/2019 6 PM CST 354.68 301.79 28,341
11/14/2019 7 PM CST 354.64 302.22 40,497
11/14/2019 8 PM CST 354.63 302.42 40,927
11/14/2019 9 PM CST 354.63 302.41 40,924
11/14/2019 10 PM CST 354.63 302.36 40,901
11/14/2019 11 PM CST 354.64 302.39 40,876
11/15/2019 12 AM CST 354.64 302.46 41,020
11/15/2019 1 AM CST 354.64 302.41 41,003
11/15/2019 2 AM CST 354.66 302.33 40,911
11/15/2019 3 AM CST 354.68 302.29 40,921
11/15/2019 4 AM CST 354.65 302.26 40,987
11/15/2019 5 AM CST 354.63 302.23 40,822
11/15/2019 6 AM CST 354.64 302.19 40,693
11/15/2019 7 AM CST 354.59 302.20 40,674
11/15/2019 8 AM CST 354.59 302.30 40,775
11/15/2019 9 AM CST 354.60 302.30 40,748
11/15/2019 10 AM CST 354.59 302.38 40,871
11/15/2019 11 AM CST 354.55 302.40 40,908
11/15/2019 12 PM CST 354.54 302.46 41,027
11/15/2019 1 PM CST 354.55 302.43 40,978

Elevations are in feet above sea level. Discharges are in cubic feet per second and are reported at the end of the hour.